sensor_id;sensor_type;location;lat;lon;timestamp;pressure;altitude;pressure_sealevel;temperature;humidity
70758;BME280;59316;52.964;7.102;2023-02-18T00:03:55;101990.25;;;8.60;nan
70758;BME280;59316;52.964;7.102;2023-02-18T00:09:00;102000.25;;;8.72;nan
70758;BME280;59316;52.964;7.102;2023-02-18T00:14:05;101990.44;;;8.81;nan
70758;BME280;59316;52.964;7.102;2023-02-18T00:19:10;101987.69;;;8.85;nan
70758;BME280;59316;52.964;7.102;2023-02-18T00:24:15;101995.19;;;8.95;nan
70758;BME280;59316;52.964;7.102;2023-02-18T00:29:18;101990.03;;;8.93;nan
70758;BME280;59316;52.964;7.102;2023-02-18T00:34:22;101979.88;;;9.09;nan
70758;BME280;59316;52.964;7.102;2023-02-18T00:39:24;101978.84;;;9.15;nan
70758;BME280;59316;52.964;7.102;2023-02-18T00:44:27;101960.94;;;9.04;nan
70758;BME280;59316;52.964;7.102;2023-02-18T00:49:33;101950.91;;;8.92;nan
70758;BME280;59316;52.964;7.102;2023-02-18T00:54:37;101929.53;;;8.82;nan
70758;BME280;59316;52.964;7.102;2023-02-18T00:59:40;101923.16;;;8.65;nan
70758;BME280;59316;52.964;7.102;2023-02-18T01:04:43;101915.84;;;8.50;nan
70758;BME280;59316;52.964;7.102;2023-02-18T01:09:45;101897.75;;;8.45;nan
70758;BME280;59316;52.964;7.102;2023-02-18T01:14:48;101899.00;;;8.33;nan
70758;BME280;59316;52.964;7.102;2023-02-18T01:19:51;101898.50;;;8.22;nan
70758;BME280;59316;52.964;7.102;2023-02-18T01:24:53;101900.66;;;8.36;nan
70758;BME280;59316;52.964;7.102;2023-02-18T01:29:56;101901.47;;;8.63;nan
70758;BME280;59316;52.964;7.102;2023-02-18T01:34:59;101898.38;;;8.77;nan
70758;BME280;59316;52.964;7.102;2023-02-18T01:40:03;101902.97;;;8.96;nan
70758;BME280;59316;52.964;7.102;2023-02-18T01:50:36;101876.75;;;9.23;nan
70758;BME280;59316;52.964;7.102;2023-02-18T01:55:42;101873.88;;;9.30;nan
70758;BME280;59316;52.964;7.102;2023-02-18T02:00:45;101871.06;;;9.35;nan
70758;BME280;59316;52.964;7.102;2023-02-18T02:05:48;101862.88;;;9.44;nan
70758;BME280;59316;52.964;7.102;2023-02-18T02:16:16;101851.03;;;9.58;nan
70758;BME280;59316;52.964;7.102;2023-02-18T02:27:12;101838.59;;;9.64;nan
70758;BME280;59316;52.964;7.102;2023-02-18T02:32:55;101809.75;;;9.67;nan
70758;BME280;59316;52.964;7.102;2023-02-18T02:37:58;101784.53;;;9.66;nan
70758;BME280;59316;52.964;7.102;2023-02-18T02:48:21;101783.81;;;9.63;nan
70758;BME280;59316;52.964;7.102;2023-02-18T02:53:30;101788.13;;;9.64;nan
70758;BME280;59316;52.964;7.102;2023-02-18T02:58:36;101776.78;;;9.65;nan
70758;BME280;59316;52.964;7.102;2023-02-18T03:09:20;101761.13;;;9.85;nan
70758;BME280;59316;52.964;7.102;2023-02-18T03:14:43;101760.22;;;9.86;nan
70758;BME280;59316;52.964;7.102;2023-02-18T03:20:15;101733.94;;;9.90;nan
70758;BME280;59316;52.964;7.102;2023-02-18T03:25:28;101716.47;;;9.90;nan
70758;BME280;59316;52.964;7.102;2023-02-18T03:30:36;101708.13;;;9.82;nan
70758;BME280;59316;52.964;7.102;2023-02-18T03:35:55;101699.31;;;9.84;nan
70758;BME280;59316;52.964;7.102;2023-02-18T03:40:58;101687.25;;;9.82;nan
70758;BME280;59316;52.964;7.102;2023-02-18T03:46:01;101679.56;;;9.79;nan
70758;BME280;59316;52.964;7.102;2023-02-18T03:51:04;101670.19;;;9.73;nan
70758;BME280;59316;52.964;7.102;2023-02-18T03:56:07;101664.81;;;9.76;nan
70758;BME280;59316;52.964;7.102;2023-02-18T04:01:10;101666.34;;;9.82;nan
70758;BME280;59316;52.964;7.102;2023-02-18T04:06:13;101671.22;;;9.90;nan
70758;BME280;59316;52.964;7.102;2023-02-18T04:11:15;101666.25;;;10.04;nan
70758;BME280;59316;52.964;7.102;2023-02-18T04:16:18;101658.94;;;10.12;nan
70758;BME280;59316;52.964;7.102;2023-02-18T04:21:21;101649.88;;;10.19;nan
70758;BME280;59316;52.964;7.102;2023-02-18T04:26:24;101653.91;;;10.27;nan
70758;BME280;59316;52.964;7.102;2023-02-18T04:31:27;101633.00;;;10.27;nan
70758;BME280;59316;52.964;7.102;2023-02-18T04:36:30;101625.00;;;10.30;nan
70758;BME280;59316;52.964;7.102;2023-02-18T04:41:32;101632.00;;;10.29;nan
70758;BME280;59316;52.964;7.102;2023-02-18T04:46:35;101621.63;;;10.28;nan
70758;BME280;59316;52.964;7.102;2023-02-18T04:51:38;101616.41;;;10.28;nan
70758;BME280;59316;52.964;7.102;2023-02-18T04:56:40;101604.59;;;10.19;nan
70758;BME280;59316;52.964;7.102;2023-02-18T05:01:43;101570.34;;;10.25;nan
70758;BME280;59316;52.964;7.102;2023-02-18T05:06:46;101571.25;;;10.24;nan
70758;BME280;59316;52.964;7.102;2023-02-18T05:11:48;101550.41;;;10.23;nan
70758;BME280;59316;52.964;7.102;2023-02-18T05:16:51;101549.50;;;10.24;nan
70758;BME280;59316;52.964;7.102;2023-02-18T05:21:54;101533.66;;;10.27;nan
70758;BME280;59316;52.964;7.102;2023-02-18T05:26:57;101522.56;;;10.22;nan
70758;BME280;59316;52.964;7.102;2023-02-18T05:31:59;101508.72;;;10.19;nan
70758;BME280;59316;52.964;7.102;2023-02-18T05:37:02;101491.38;;;10.18;nan
70758;BME280;59316;52.964;7.102;2023-02-18T05:42:05;101487.13;;;10.16;nan
70758;BME280;59316;52.964;7.102;2023-02-18T05:47:09;101470.28;;;10.22;nan
70758;BME280;59316;52.964;7.102;2023-02-18T05:52:13;101456.06;;;10.27;nan
70758;BME280;59316;52.964;7.102;2023-02-18T05:57:15;101441.38;;;10.25;nan
70758;BME280;59316;52.964;7.102;2023-02-18T06:02:18;101425.31;;;10.32;nan
70758;BME280;59316;52.964;7.102;2023-02-18T06:07:21;101420.69;;;10.37;nan
70758;BME280;59316;52.964;7.102;2023-02-18T06:12:23;101419.72;;;10.40;nan
70758;BME280;59316;52.964;7.102;2023-02-18T06:17:26;101390.97;;;10.40;nan
70758;BME280;59316;52.964;7.102;2023-02-18T06:22:29;101392.44;;;10.46;nan
70758;BME280;59316;52.964;7.102;2023-02-18T06:27:32;101380.22;;;10.46;nan
70758;BME280;59316;52.964;7.102;2023-02-18T06:32:34;101361.47;;;10.56;nan
70758;BME280;59316;52.964;7.102;2023-02-18T06:37:37;101370.75;;;10.61;nan
70758;BME280;59316;52.964;7.102;2023-02-18T06:42:40;101353.22;;;10.63;nan
70758;BME280;59316;52.964;7.102;2023-02-18T06:47:43;101362.50;;;10.69;nan
70758;BME280;59316;52.964;7.102;2023-02-18T06:52:45;101353.50;;;10.75;nan
70758;BME280;59316;52.964;7.102;2023-02-18T06:57:48;101347.09;;;10.80;nan
70758;BME280;59316;52.964;7.102;2023-02-18T07:02:51;101347.59;;;10.87;nan
70758;BME280;59316;52.964;7.102;2023-02-18T07:07:53;101343.16;;;10.89;nan
70758;BME280;59316;52.964;7.102;2023-02-18T07:12:56;101328.56;;;11.01;nan
70758;BME280;59316;52.964;7.102;2023-02-18T07:17:59;101321.91;;;11.11;nan
70758;BME280;59316;52.964;7.102;2023-02-18T07:23:02;101316.41;;;11.16;nan
70758;BME280;59316;52.964;7.102;2023-02-18T07:28:05;101308.22;;;11.22;nan
70758;BME280;59316;52.964;7.102;2023-02-18T07:33:07;101315.56;;;11.31;nan
70758;BME280;59316;52.964;7.102;2023-02-18T07:38:10;101306.53;;;11.37;nan
70758;BME280;59316;52.964;7.102;2023-02-18T07:43:13;101302.16;;;11.38;nan
70758;BME280;59316;52.964;7.102;2023-02-18T07:48:15;101298.19;;;11.46;nan
70758;BME280;59316;52.964;7.102;2023-02-18T07:53:18;101301.44;;;11.50;nan
70758;BME280;59316;52.964;7.102;2023-02-18T07:58:22;101309.97;;;11.54;nan
70758;BME280;59316;52.964;7.102;2023-02-18T08:03:27;101308.88;;;11.58;nan
70758;BME280;59316;52.964;7.102;2023-02-18T08:08:31;101305.16;;;11.62;nan
70758;BME280;59316;52.964;7.102;2023-02-18T08:13:38;101296.97;;;11.52;nan
70758;BME280;59316;52.964;7.102;2023-02-18T08:18:40;101296.13;;;11.51;nan
70758;BME280;59316;52.964;7.102;2023-02-18T08:23:43;101288.63;;;11.45;nan
70758;BME280;59316;52.964;7.102;2023-02-18T08:28:47;101291.41;;;11.42;nan
70758;BME280;59316;52.964;7.102;2023-02-18T08:33:52;101312.28;;;11.44;nan
70758;BME280;59316;52.964;7.102;2023-02-18T08:38:56;101311.34;;;11.45;nan
70758;BME280;59316;52.964;7.102;2023-02-18T08:43:59;101291.81;;;11.34;nan
70758;BME280;59316;52.964;7.102;2023-02-18T08:49:02;101287.13;;;11.41;nan
70758;BME280;59316;52.964;7.102;2023-02-18T08:54:05;101285.50;;;11.39;nan
70758;BME280;59316;52.964;7.102;2023-02-18T08:59:08;101300.63;;;11.33;nan
70758;BME280;59316;52.964;7.102;2023-02-18T09:04:11;101287.03;;;11.43;nan
70758;BME280;59316;52.964;7.102;2023-02-18T09:09:15;101292.78;;;11.33;nan
70758;BME280;59316;52.964;7.102;2023-02-18T09:14:18;101264.72;;;11.35;nan
70758;BME280;59316;52.964;7.102;2023-02-18T09:19:21;101270.88;;;11.34;nan
70758;BME280;59316;52.964;7.102;2023-02-18T09:24:24;101288.38;;;11.34;nan
70758;BME280;59316;52.964;7.102;2023-02-18T09:29:26;101300.69;;;11.48;nan
70758;BME280;59316;52.964;7.102;2023-02-18T09:34:29;101287.75;;;11.45;nan
70758;BME280;59316;52.964;7.102;2023-02-18T09:39:32;101284.75;;;11.37;nan
70758;BME280;59316;52.964;7.102;2023-02-18T09:44:37;101281.19;;;11.38;nan
70758;BME280;59316;52.964;7.102;2023-02-18T09:49:48;101280.84;;;11.28;nan
70758;BME280;59316;52.964;7.102;2023-02-18T09:54:57;101291.75;;;11.20;nan
70758;BME280;59316;52.964;7.102;2023-02-18T10:00:00;101299.38;;;11.25;nan
70758;BME280;59316;52.964;7.102;2023-02-18T10:05:13;101289.72;;;11.41;nan
70758;BME280;59316;52.964;7.102;2023-02-18T10:15:32;101277.66;;;11.39;nan
70758;BME280;59316;52.964;7.102;2023-02-18T10:20:35;101305.34;;;11.43;nan
70758;BME280;59316;52.964;7.102;2023-02-18T10:25:40;101297.75;;;11.22;nan
70758;BME280;59316;52.964;7.102;2023-02-18T10:30:46;101291.16;;;11.31;nan
70758;BME280;59316;52.964;7.102;2023-02-18T10:46:36;101290.31;;;11.46;nan
70758;BME280;59316;52.964;7.102;2023-02-18T10:51:55;101296.13;;;11.51;nan
70758;BME280;59316;52.964;7.102;2023-02-18T10:57:00;101309.22;;;11.51;nan
70758;BME280;59316;52.964;7.102;2023-02-18T11:02:04;101304.75;;;11.54;nan
70758;BME280;59316;52.964;7.102;2023-02-18T11:07:28;101319.72;;;11.51;nan
70758;BME280;59316;52.964;7.102;2023-02-18T11:12:49;101318.41;;;11.59;nan
70758;BME280;59316;52.964;7.102;2023-02-18T11:23:27;101323.66;;;11.75;nan
70758;BME280;59316;52.964;7.102;2023-02-18T11:28:43;101324.13;;;11.81;nan
70758;BME280;59316;52.964;7.102;2023-02-18T11:33:57;101326.63;;;11.99;nan
70758;BME280;59316;52.964;7.102;2023-02-18T11:39:03;101348.47;;;12.14;nan
70758;BME280;59316;52.964;7.102;2023-02-18T11:49:40;101346.75;;;12.29;nan
70758;BME280;59316;52.964;7.102;2023-02-18T11:55:05;101333.38;;;12.33;nan
70758;BME280;59316;52.964;7.102;2023-02-18T12:05:32;101345.91;;;12.59;nan
70758;BME280;59316;52.964;7.102;2023-02-18T12:15:43;101352.34;;;12.53;nan
70758;BME280;59316;52.964;7.102;2023-02-18T12:21:04;101345.50;;;12.51;nan
70758;BME280;59316;52.964;7.102;2023-02-18T12:58:24;101360.03;;;13.28;nan
70758;BME280;59316;52.964;7.102;2023-02-18T13:09:15;101369.31;;;13.20;nan
70758;BME280;59316;52.964;7.102;2023-02-18T13:14:25;101363.41;;;13.16;nan
70758;BME280;59316;52.964;7.102;2023-02-18T13:20:19;101376.81;;;13.26;nan
70758;BME280;59316;52.964;7.102;2023-02-18T13:24:56;101381.97;;;13.27;nan
70758;BME280;59316;52.964;7.102;2023-02-18T13:40:18;101374.84;;;13.29;nan
70758;BME280;59316;52.964;7.102;2023-02-18T13:45:30;101378.09;;;13.47;nan
70758;BME280;59316;52.964;7.102;2023-02-18T13:50:41;101379.91;;;13.32;nan
70758;BME280;59316;52.964;7.102;2023-02-18T14:01:19;101408.03;;;13.45;nan
70758;BME280;59316;52.964;7.102;2023-02-18T14:06:30;101396.88;;;13.41;nan
70758;BME280;59316;52.964;7.102;2023-02-18T14:11:53;101400.94;;;13.18;nan
70758;BME280;59316;52.964;7.102;2023-02-18T14:27:49;101431.13;;;12.96;nan
70758;BME280;59316;52.964;7.102;2023-02-18T14:32:57;101445.06;;;12.82;nan
70758;BME280;59316;52.964;7.102;2023-02-18T14:38:05;101449.88;;;12.90;nan
70758;BME280;59316;52.964;7.102;2023-02-18T14:49:07;101460.19;;;12.93;nan
70758;BME280;59316;52.964;7.102;2023-02-18T14:54:31;101456.41;;;12.83;nan
70758;BME280;59316;52.964;7.102;2023-02-18T14:59:35;101465.25;;;12.82;nan
70758;BME280;59316;52.964;7.102;2023-02-18T15:04:41;101460.28;;;12.92;nan
70758;BME280;59316;52.964;7.102;2023-02-18T15:09:48;101465.03;;;12.85;nan
70758;BME280;59316;52.964;7.102;2023-02-18T15:14:55;101480.53;;;12.90;nan
70758;BME280;59316;52.964;7.102;2023-02-18T15:20:04;101478.63;;;12.77;nan
70758;BME280;59316;52.964;7.102;2023-02-18T15:25:10;101490.34;;;12.72;nan
70758;BME280;59316;52.964;7.102;2023-02-18T15:30:25;101493.44;;;12.78;nan
70758;BME280;59316;52.964;7.102;2023-02-18T15:35:31;101510.47;;;12.71;nan
70758;BME280;59316;52.964;7.102;2023-02-18T15:40:35;101506.31;;;12.53;nan
70758;BME280;59316;52.964;7.102;2023-02-18T15:45:40;101513.50;;;12.49;nan
70758;BME280;59316;52.964;7.102;2023-02-18T15:50:47;101511.41;;;12.40;nan
70758;BME280;59316;52.964;7.102;2023-02-18T15:55:55;101514.03;;;12.40;nan
70758;BME280;59316;52.964;7.102;2023-02-18T16:00:59;101523.91;;;12.35;nan
70758;BME280;59316;52.964;7.102;2023-02-18T16:06:09;101522.69;;;12.24;nan
70758;BME280;59316;52.964;7.102;2023-02-18T16:11:27;101519.75;;;12.14;nan
70758;BME280;59316;52.964;7.102;2023-02-18T16:16:34;101526.28;;;12.07;nan
70758;BME280;59316;52.964;7.102;2023-02-18T16:21:38;101521.28;;;12.03;nan
70758;BME280;59316;52.964;7.102;2023-02-18T16:26:46;101529.59;;;11.95;nan
70758;BME280;59316;52.964;7.102;2023-02-18T16:31:51;101536.50;;;11.80;nan
70758;BME280;59316;52.964;7.102;2023-02-18T16:36:55;101539.75;;;11.67;nan
70758;BME280;59316;52.964;7.102;2023-02-18T16:41:58;101542.28;;;11.69;nan
70758;BME280;59316;52.964;7.102;2023-02-18T16:47:01;101548.81;;;11.62;nan
70758;BME280;59316;52.964;7.102;2023-02-18T16:52:05;101551.75;;;11.56;nan
70758;BME280;59316;52.964;7.102;2023-02-18T16:57:09;101550.47;;;11.63;nan
70758;BME280;59316;52.964;7.102;2023-02-18T17:02:17;101557.91;;;11.55;nan
70758;BME280;59316;52.964;7.102;2023-02-18T17:07:22;101569.38;;;11.52;nan
70758;BME280;59316;52.964;7.102;2023-02-18T17:12:25;101566.84;;;11.50;nan
70758;BME280;59316;52.964;7.102;2023-02-18T17:17:28;101562.53;;;11.49;nan
70758;BME280;59316;52.964;7.102;2023-02-18T17:22:34;101574.94;;;11.46;nan
70758;BME280;59316;52.964;7.102;2023-02-18T17:27:37;101585.50;;;11.44;nan
70758;BME280;59316;52.964;7.102;2023-02-18T17:32:40;101584.19;;;11.35;nan
70758;BME280;59316;52.964;7.102;2023-02-18T17:37:44;101596.06;;;11.43;nan
70758;BME280;59316;52.964;7.102;2023-02-18T17:42:47;101594.34;;;11.42;nan
70758;BME280;59316;52.964;7.102;2023-02-18T17:47:50;101600.06;;;11.32;nan
70758;BME280;59316;52.964;7.102;2023-02-18T17:52:53;101600.06;;;11.32;nan
70758;BME280;59316;52.964;7.102;2023-02-18T17:57:56;101603.75;;;11.28;nan
70758;BME280;59316;52.964;7.102;2023-02-18T18:03:00;101612.59;;;11.26;nan
70758;BME280;59316;52.964;7.102;2023-02-18T18:08:04;101619.53;;;11.27;nan
70758;BME280;59316;52.964;7.102;2023-02-18T18:13:10;101631.09;;;11.23;nan
70758;BME280;59316;52.964;7.102;2023-02-18T18:18:19;101622.84;;;11.13;nan
70758;BME280;59316;52.964;7.102;2023-02-18T18:23:22;101632.03;;;11.22;nan
70758;BME280;59316;52.964;7.102;2023-02-18T18:28:25;101625.63;;;11.10;nan
70758;BME280;59316;52.964;7.102;2023-02-18T18:33:30;101624.94;;;11.06;nan
70758;BME280;59316;52.964;7.102;2023-02-18T18:38:34;101612.44;;;10.94;nan
70758;BME280;59316;52.964;7.102;2023-02-18T18:43:37;101624.22;;;10.85;nan
70758;BME280;59316;52.964;7.102;2023-02-18T18:48:39;101629.13;;;10.91;nan
70758;BME280;59316;52.964;7.102;2023-02-18T18:53:42;101638.94;;;10.88;nan
70758;BME280;59316;52.964;7.102;2023-02-18T18:58:45;101632.69;;;10.90;nan
70758;BME280;59316;52.964;7.102;2023-02-18T19:03:48;101633.34;;;10.76;nan
70758;BME280;59316;52.964;7.102;2023-02-18T19:08:51;101627.41;;;10.73;nan
70758;BME280;59316;52.964;7.102;2023-02-18T19:13:53;101627.53;;;10.69;nan
70758;BME280;59316;52.964;7.102;2023-02-18T19:18:56;101618.41;;;10.61;nan
70758;BME280;59316;52.964;7.102;2023-02-18T19:23:59;101610.13;;;10.51;nan
70758;BME280;59316;52.964;7.102;2023-02-18T19:29:02;101637.41;;;10.45;nan
70758;BME280;59316;52.964;7.102;2023-02-18T19:34:05;101636.19;;;10.52;nan
70758;BME280;59316;52.964;7.102;2023-02-18T19:39:08;101634.09;;;10.61;nan
70758;BME280;59316;52.964;7.102;2023-02-18T19:44:11;101626.00;;;10.65;nan
70758;BME280;59316;52.964;7.102;2023-02-18T19:49:14;101632.72;;;10.71;nan
70758;BME280;59316;52.964;7.102;2023-02-18T19:54:16;101625.63;;;10.73;nan
70758;BME280;59316;52.964;7.102;2023-02-18T19:59:20;101624.50;;;10.79;nan
70758;BME280;59316;52.964;7.102;2023-02-18T20:04:22;101631.50;;;10.78;nan
70758;BME280;59316;52.964;7.102;2023-02-18T20:09:25;101621.97;;;10.77;nan
70758;BME280;59316;52.964;7.102;2023-02-18T20:14:28;101616.13;;;10.72;nan
70758;BME280;59316;52.964;7.102;2023-02-18T20:19:31;101617.09;;;10.69;nan
70758;BME280;59316;52.964;7.102;2023-02-18T20:24:35;101610.31;;;10.65;nan
70758;BME280;59316;52.964;7.102;2023-02-18T20:29:38;101601.53;;;10.66;nan
70758;BME280;59316;52.964;7.102;2023-02-18T20:34:41;101613.44;;;10.74;nan
70758;BME280;59316;52.964;7.102;2023-02-18T20:39:44;101597.34;;;10.81;nan
70758;BME280;59316;52.964;7.102;2023-02-18T20:44:47;101589.50;;;10.81;nan
70758;BME280;59316;52.964;7.102;2023-02-18T20:49:50;101590.63;;;10.76;nan
70758;BME280;59316;52.964;7.102;2023-02-18T20:54:52;101583.66;;;10.76;nan
70758;BME280;59316;52.964;7.102;2023-02-18T20:59:55;101587.19;;;10.75;nan
70758;BME280;59316;52.964;7.102;2023-02-18T21:04:58;101575.31;;;10.68;nan
70758;BME280;59316;52.964;7.102;2023-02-18T21:10:04;101567.00;;;10.60;nan
70758;BME280;59316;52.964;7.102;2023-02-18T21:15:07;101565.59;;;10.52;nan
70758;BME280;59316;52.964;7.102;2023-02-18T21:20:10;101559.59;;;10.50;nan
70758;BME280;59316;52.964;7.102;2023-02-18T21:25:13;101554.22;;;10.53;nan
70758;BME280;59316;52.964;7.102;2023-02-18T21:30:16;101555.53;;;10.62;nan
70758;BME280;59316;52.964;7.102;2023-02-18T21:35:18;101564.94;;;10.66;nan
70758;BME280;59316;52.964;7.102;2023-02-18T21:40:21;101559.31;;;10.74;nan
70758;BME280;59316;52.964;7.102;2023-02-18T21:45:24;101555.00;;;10.73;nan
70758;BME280;59316;52.964;7.102;2023-02-18T21:50:27;101543.22;;;10.64;nan
70758;BME280;59316;52.964;7.102;2023-02-18T21:55:30;101539.13;;;10.59;nan
70758;BME280;59316;52.964;7.102;2023-02-18T22:00:33;101522.81;;;10.53;nan
70758;BME280;59316;52.964;7.102;2023-02-18T22:05:39;101512.97;;;10.59;nan
70758;BME280;59316;52.964;7.102;2023-02-18T22:10:42;101497.38;;;10.57;nan
70758;BME280;59316;52.964;7.102;2023-02-18T22:15:52;101498.75;;;10.64;nan
70758;BME280;59316;52.964;7.102;2023-02-18T22:20:56;101486.00;;;10.58;nan
70758;BME280;59316;52.964;7.102;2023-02-18T22:26:06;101487.28;;;10.67;nan
70758;BME280;59316;52.964;7.102;2023-02-18T22:31:10;101482.00;;;10.68;nan
70758;BME280;59316;52.964;7.102;2023-02-18T22:36:14;101479.13;;;10.73;nan
70758;BME280;59316;52.964;7.102;2023-02-18T22:41:18;101482.06;;;10.67;nan
70758;BME280;59316;52.964;7.102;2023-02-18T22:46:22;101479.00;;;10.76;nan
70758;BME280;59316;52.964;7.102;2023-02-18T22:51:26;101473.69;;;10.78;nan
70758;BME280;59316;52.964;7.102;2023-02-18T22:56:30;101477.13;;;10.78;nan
70758;BME280;59316;52.964;7.102;2023-02-18T23:01:34;101464.00;;;10.80;nan
70758;BME280;59316;52.964;7.102;2023-02-18T23:06:39;101463.22;;;10.78;nan
70758;BME280;59316;52.964;7.102;2023-02-18T23:11:44;101466.75;;;10.77;nan
70758;BME280;59316;52.964;7.102;2023-02-18T23:16:52;101466.84;;;10.75;nan
70758;BME280;59316;52.964;7.102;2023-02-18T23:21:56;101445.38;;;10.68;nan
70758;BME280;59316;52.964;7.102;2023-02-18T23:26:59;101447.69;;;10.75;nan
70758;BME280;59316;52.964;7.102;2023-02-18T23:32:02;101432.81;;;10.75;nan
70758;BME280;59316;52.964;7.102;2023-02-18T23:37:05;101448.53;;;10.75;nan
70758;BME280;59316;52.964;7.102;2023-02-18T23:42:08;101445.44;;;10.67;nan
70758;BME280;59316;52.964;7.102;2023-02-18T23:47:11;101442.69;;;10.70;nan
70758;BME280;59316;52.964;7.102;2023-02-18T23:52:14;101448.75;;;10.71;nan
70758;BME280;59316;52.964;7.102;2023-02-18T23:57:17;101430.44;;;10.71;nan
